sensor_id;sensor_type;location;lat;lon;timestamp;temperature;humidity
17284;DHT22;8760;52.248;20.952;2023-10-08T00:00:24;10.70;99.90
17284;DHT22;8760;52.248;20.952;2023-10-08T00:03:13;10.70;99.90
17284;DHT22;8760;52.248;20.952;2023-10-08T00:05:41;10.70;99.90
17284;DHT22;8760;52.248;20.952;2023-10-08T00:08:08;10.70;99.90
17284;DHT22;8760;52.248;20.952;2023-10-08T00:10:36;10.70;99.90
17284;DHT22;8760;52.248;20.952;2023-10-08T00:13:06;10.70;99.90
17284;DHT22;8760;52.248;20.952;2023-10-08T00:15:35;10.70;99.90
17284;DHT22;8760;52.248;20.952;2023-10-08T00:18:03;10.80;99.90
17284;DHT22;8760;52.248;20.952;2023-10-08T00:20:35;10.80;99.90
17284;DHT22;8760;52.248;20.952;2023-10-08T00:23:08;10.70;99.90
17284;DHT22;8760;52.248;20.952;2023-10-08T00:25:35;10.70;99.90
17284;DHT22;8760;52.248;20.952;2023-10-08T00:28:07;10.70;99.90
17284;DHT22;8760;52.248;20.952;2023-10-08T00:30:38;10.60;99.90
17284;DHT22;8760;52.248;20.952;2023-10-08T00:33:08;10.60;99.90
17284;DHT22;8760;52.248;20.952;2023-10-08T00:35:42;10.60;99.90
17284;DHT22;8760;52.248;20.952;2023-10-08T00:38:09;10.60;99.90
17284;DHT22;8760;52.248;20.952;2023-10-08T00:40:41;10.60;99.90
17284;DHT22;8760;52.248;20.952;2023-10-08T00:45:53;10.60;99.90
17284;DHT22;8760;52.248;20.952;2023-10-08T00:48:20;10.60;99.90
17284;DHT22;8760;52.248;20.952;2023-10-08T00:50:56;10.60;99.90
17284;DHT22;8760;52.248;20.952;2023-10-08T00:53:35;10.60;99.90
17284;DHT22;8760;52.248;20.952;2023-10-08T00:56:05;10.60;99.90
17284;DHT22;8760;52.248;20.952;2023-10-08T00:58:39;10.60;99.90
17284;DHT22;8760;52.248;20.952;2023-10-08T01:01:06;10.60;99.90
17284;DHT22;8760;52.248;20.952;2023-10-08T01:03:36;10.60;99.90
17284;DHT22;8760;52.248;20.952;2023-10-08T01:06:11;10.60;99.90
17284;DHT22;8760;52.248;20.952;2023-10-08T01:08:41;10.50;99.90
17284;DHT22;8760;52.248;20.952;2023-10-08T01:11:20;10.50;99.90
17284;DHT22;8760;52.248;20.952;2023-10-08T01:13:56;10.50;99.90
17284;DHT22;8760;52.248;20.952;2023-10-08T01:16:24;10.60;99.90
17284;DHT22;8760;52.248;20.952;2023-10-08T01:18:52;10.60;99.90
17284;DHT22;8760;52.248;20.952;2023-10-08T01:21:22;10.60;99.90
17284;DHT22;8760;52.248;20.952;2023-10-08T01:24:07;10.50;99.90
17284;DHT22;8760;52.248;20.952;2023-10-08T01:26:34;10.50;99.90
17284;DHT22;8760;52.248;20.952;2023-10-08T01:29:04;10.60;99.90
17284;DHT22;8760;52.248;20.952;2023-10-08T01:31:32;10.60;99.90
17284;DHT22;8760;52.248;20.952;2023-10-08T01:33:59;10.60;99.90
17284;DHT22;8760;52.248;20.952;2023-10-08T01:36:30;10.60;99.90
17284;DHT22;8760;52.248;20.952;2023-10-08T01:38:57;10.60;99.90
17284;DHT22;8760;52.248;20.952;2023-10-08T01:41:28;10.50;99.90
17284;DHT22;8760;52.248;20.952;2023-10-08T01:43:56;10.50;99.90
17284;DHT22;8760;52.248;20.952;2023-10-08T01:46:24;10.50;99.90
17284;DHT22;8760;52.248;20.952;2023-10-08T01:48:52;10.60;99.90
17284;DHT22;8760;52.248;20.952;2023-10-08T01:51:29;10.50;99.90
17284;DHT22;8760;52.248;20.952;2023-10-08T01:54:02;10.50;99.90
17284;DHT22;8760;52.248;20.952;2023-10-08T01:56:37;10.60;99.90
17284;DHT22;8760;52.248;20.952;2023-10-08T01:59:07;10.60;99.90
17284;DHT22;8760;52.248;20.952;2023-10-08T02:01:34;10.60;99.90
17284;DHT22;8760;52.248;20.952;2023-10-08T02:04:01;10.60;99.90
17284;DHT22;8760;52.248;20.952;2023-10-08T02:06:28;10.60;99.90
17284;DHT22;8760;52.248;20.952;2023-10-08T02:08:56;10.60;99.90
17284;DHT22;8760;52.248;20.952;2023-10-08T02:11:24;10.60;99.90
17284;DHT22;8760;52.248;20.952;2023-10-08T02:13:54;10.60;99.90
17284;DHT22;8760;52.248;20.952;2023-10-08T02:16:21;10.50;99.90
17284;DHT22;8760;52.248;20.952;2023-10-08T02:18:49;10.50;99.90
17284;DHT22;8760;52.248;20.952;2023-10-08T02:21:17;10.40;99.90
17284;DHT22;8760;52.248;20.952;2023-10-08T02:23:43;10.40;99.90
17284;DHT22;8760;52.248;20.952;2023-10-08T02:26:10;10.40;99.90
17284;DHT22;8760;52.248;20.952;2023-10-08T02:28:40;10.40;99.90
17284;DHT22;8760;52.248;20.952;2023-10-08T02:31:08;10.40;99.90
17284;DHT22;8760;52.248;20.952;2023-10-08T02:33:35;10.30;99.90
17284;DHT22;8760;52.248;20.952;2023-10-08T02:36:04;10.40;99.90
17284;DHT22;8760;52.248;20.952;2023-10-08T02:38:30;10.30;99.90
17284;DHT22;8760;52.248;20.952;2023-10-08T02:41:03;10.40;99.90
17284;DHT22;8760;52.248;20.952;2023-10-08T02:43:32;10.40;99.90
17284;DHT22;8760;52.248;20.952;2023-10-08T02:45:59;10.40;99.90
17284;DHT22;8760;52.248;20.952;2023-10-08T02:48:28;10.40;99.90
17284;DHT22;8760;52.248;20.952;2023-10-08T02:50:55;10.40;99.90
17284;DHT22;8760;52.248;20.952;2023-10-08T02:53:33;10.30;99.90
17284;DHT22;8760;52.248;20.952;2023-10-08T02:55:59;10.40;99.90
17284;DHT22;8760;52.248;20.952;2023-10-08T02:58:32;10.40;99.90
17284;DHT22;8760;52.248;20.952;2023-10-08T03:01:01;10.40;99.90
17284;DHT22;8760;52.248;20.952;2023-10-08T03:03:30;10.40;99.90
17284;DHT22;8760;52.248;20.952;2023-10-08T03:05:58;10.30;99.90
17284;DHT22;8760;52.248;20.952;2023-10-08T03:08:25;10.30;99.90
17284;DHT22;8760;52.248;20.952;2023-10-08T03:10:56;10.30;99.90
17284;DHT22;8760;52.248;20.952;2023-10-08T03:13:29;10.30;99.90
17284;DHT22;8760;52.248;20.952;2023-10-08T03:15:57;10.30;99.90
17284;DHT22;8760;52.248;20.952;2023-10-08T03:18:36;10.30;99.90
17284;DHT22;8760;52.248;20.952;2023-10-08T03:21:08;10.30;99.90
17284;DHT22;8760;52.248;20.952;2023-10-08T03:23:46;10.30;99.90
17284;DHT22;8760;52.248;20.952;2023-10-08T03:26:16;10.20;99.90
17284;DHT22;8760;52.248;20.952;2023-10-08T03:29:00;10.20;99.90
17284;DHT22;8760;52.248;20.952;2023-10-08T03:31:33;10.20;99.90
17284;DHT22;8760;52.248;20.952;2023-10-08T03:34:18;10.20;99.90
17284;DHT22;8760;52.248;20.952;2023-10-08T03:36:46;10.20;96.40
17284;DHT22;8760;52.248;20.952;2023-10-08T03:39:15;10.20;1.00
17284;DHT22;8760;52.248;20.952;2023-10-08T03:41:44;10.20;1.00
17284;DHT22;8760;52.248;20.952;2023-10-08T03:44:25;10.20;1.00
17284;DHT22;8760;52.248;20.952;2023-10-08T03:46:55;10.10;1.00
17284;DHT22;8760;52.248;20.952;2023-10-08T03:49:24;10.10;99.90
17284;DHT22;8760;52.248;20.952;2023-10-08T03:51:57;10.10;37.40
17284;DHT22;8760;52.248;20.952;2023-10-08T03:54:24;10.10;72.70
17284;DHT22;8760;52.248;20.952;2023-10-08T03:57:00;10.10;99.90
17284;DHT22;8760;52.248;20.952;2023-10-08T03:59:27;10.00;1.00
17284;DHT22;8760;52.248;20.952;2023-10-08T04:01:57;10.00;99.90
17284;DHT22;8760;52.248;20.952;2023-10-08T04:04:36;10.00;99.90
17284;DHT22;8760;52.248;20.952;2023-10-08T04:07:16;9.90;99.90
17284;DHT22;8760;52.248;20.952;2023-10-08T04:10:05;9.90;1.00
17284;DHT22;8760;52.248;20.952;2023-10-08T04:13:00;9.90;1.00
17284;DHT22;8760;52.248;20.952;2023-10-08T04:15:27;9.90;1.00
17284;DHT22;8760;52.248;20.952;2023-10-08T04:17:53;9.80;99.90
17284;DHT22;8760;52.248;20.952;2023-10-08T04:20:23;9.80;99.90
17284;DHT22;8760;52.248;20.952;2023-10-08T04:23:04;9.80;99.90
17284;DHT22;8760;52.248;20.952;2023-10-08T04:25:35;9.70;1.00
17284;DHT22;8760;52.248;20.952;2023-10-08T04:28:01;9.60;16.70
17284;DHT22;8760;52.248;20.952;2023-10-08T04:30:32;9.60;1.00
17284;DHT22;8760;52.248;20.952;2023-10-08T04:33:01;9.50;1.00
17284;DHT22;8760;52.248;20.952;2023-10-08T04:35:33;9.50;1.00
17284;DHT22;8760;52.248;20.952;2023-10-08T04:38:04;9.50;99.90
17284;DHT22;8760;52.248;20.952;2023-10-08T04:40:34;9.50;99.90
17284;DHT22;8760;52.248;20.952;2023-10-08T04:43:07;9.50;99.90
17284;DHT22;8760;52.248;20.952;2023-10-08T04:45:36;9.40;99.90
17284;DHT22;8760;52.248;20.952;2023-10-08T04:48:04;9.40;99.90
17284;DHT22;8760;52.248;20.952;2023-10-08T04:50:36;9.30;1.00
17284;DHT22;8760;52.248;20.952;2023-10-08T04:53:03;9.20;1.00
17284;DHT22;8760;52.248;20.952;2023-10-08T04:55:34;9.10;1.00
17284;DHT22;8760;52.248;20.952;2023-10-08T04:58:01;9.10;1.00
17284;DHT22;8760;52.248;20.952;2023-10-08T05:00:31;9.00;1.00
17284;DHT22;8760;52.248;20.952;2023-10-08T05:03:19;9.00;1.00
17284;DHT22;8760;52.248;20.952;2023-10-08T05:05:49;9.00;1.00
17284;DHT22;8760;52.248;20.952;2023-10-08T05:08:33;9.00;1.00
17284;DHT22;8760;52.248;20.952;2023-10-08T05:11:13;9.00;99.90
17284;DHT22;8760;52.248;20.952;2023-10-08T05:14:02;8.90;99.90
17284;DHT22;8760;52.248;20.952;2023-10-08T05:16:41;8.90;99.90
17284;DHT22;8760;52.248;20.952;2023-10-08T05:19:25;8.80;99.90
17284;DHT22;8760;52.248;20.952;2023-10-08T05:22:17;8.70;1.00
17284;DHT22;8760;52.248;20.952;2023-10-08T05:24:44;8.70;1.00
17284;DHT22;8760;52.248;20.952;2023-10-08T05:27:32;8.70;1.00
17284;DHT22;8760;52.248;20.952;2023-10-08T05:30:10;8.70;1.00
17284;DHT22;8760;52.248;20.952;2023-10-08T05:32:41;8.70;1.00
17284;DHT22;8760;52.248;20.952;2023-10-08T05:35:31;8.70;1.00
17284;DHT22;8760;52.248;20.952;2023-10-08T05:38:16;8.70;1.00
17284;DHT22;8760;52.248;20.952;2023-10-08T05:40:49;8.70;99.90
17284;DHT22;8760;52.248;20.952;2023-10-08T05:43:42;8.70;1.00
17284;DHT22;8760;52.248;20.952;2023-10-08T05:46:21;8.70;1.00
17284;DHT22;8760;52.248;20.952;2023-10-08T05:49:17;8.70;99.90
17284;DHT22;8760;52.248;20.952;2023-10-08T05:52:04;8.80;99.90
17284;DHT22;8760;52.248;20.952;2023-10-08T05:54:49;8.80;99.90
17284;DHT22;8760;52.248;20.952;2023-10-08T05:57:34;8.90;99.90
17284;DHT22;8760;52.248;20.952;2023-10-08T06:00:06;8.90;1.00
17284;DHT22;8760;52.248;20.952;2023-10-08T06:02:50;8.90;99.90
17284;DHT22;8760;52.248;20.952;2023-10-08T06:05:35;8.90;99.90
17284;DHT22;8760;52.248;20.952;2023-10-08T06:08:11;9.00;99.90
17284;DHT22;8760;52.248;20.952;2023-10-08T06:10:40;9.10;99.90
17284;DHT22;8760;52.248;20.952;2023-10-08T06:13:22;9.10;38.90
17284;DHT22;8760;52.248;20.952;2023-10-08T06:16:10;9.20;1.00
17284;DHT22;8760;52.248;20.952;2023-10-08T06:18:39;9.40;1.00
17284;DHT22;8760;52.248;20.952;2023-10-08T06:21:06;9.80;1.00
17284;DHT22;8760;52.248;20.952;2023-10-08T06:23:34;10.40;1.00
17284;DHT22;8760;52.248;20.952;2023-10-08T06:26:03;11.10;1.00
17284;DHT22;8760;52.248;20.952;2023-10-08T06:28:42;11.60;99.90
17284;DHT22;8760;52.248;20.952;2023-10-08T06:31:10;12.00;99.90
17284;DHT22;8760;52.248;20.952;2023-10-08T06:33:43;12.50;99.90
17284;DHT22;8760;52.248;20.952;2023-10-08T06:36:10;12.90;99.90
17284;DHT22;8760;52.248;20.952;2023-10-08T06:38:43;13.20;99.90
17284;DHT22;8760;52.248;20.952;2023-10-08T06:41:12;13.40;99.90
17284;DHT22;8760;52.248;20.952;2023-10-08T06:43:44;13.70;99.90
17284;DHT22;8760;52.248;20.952;2023-10-08T06:46:14;13.80;99.90
17284;DHT22;8760;52.248;20.952;2023-10-08T06:48:41;14.00;99.90
17284;DHT22;8760;52.248;20.952;2023-10-08T06:51:09;14.20;99.90
17284;DHT22;8760;52.248;20.952;2023-10-08T06:53:41;14.40;99.70
17284;DHT22;8760;52.248;20.952;2023-10-08T06:56:08;14.70;93.10
17284;DHT22;8760;52.248;20.952;2023-10-08T06:58:39;14.70;80.20
17284;DHT22;8760;52.248;20.952;2023-10-08T07:01:11;14.80;66.80
17284;DHT22;8760;52.248;20.952;2023-10-08T07:03:38;15.20;54.70
17284;DHT22;8760;52.248;20.952;2023-10-08T07:06:05;15.20;35.10
17284;DHT22;8760;52.248;20.952;2023-10-08T07:08:43;15.20;28.00
17284;DHT22;8760;52.248;20.952;2023-10-08T07:11:12;15.40;24.90
17284;DHT22;8760;52.248;20.952;2023-10-08T07:13:41;15.70;21.50
17284;DHT22;8760;52.248;20.952;2023-10-08T07:16:08;15.70;16.90
17284;DHT22;8760;52.248;20.952;2023-10-08T07:18:36;16.10;13.70
17284;DHT22;8760;52.248;20.952;2023-10-08T07:21:03;16.00;4.50
17284;DHT22;8760;52.248;20.952;2023-10-08T07:23:38;16.30;2.40
17284;DHT22;8760;52.248;20.952;2023-10-08T07:26:22;16.10;1.00
17284;DHT22;8760;52.248;20.952;2023-10-08T07:28:52;16.00;1.00
17284;DHT22;8760;52.248;20.952;2023-10-08T07:31:21;16.30;1.00
17284;DHT22;8760;52.248;20.952;2023-10-08T07:33:49;16.00;1.00
17284;DHT22;8760;52.248;20.952;2023-10-08T07:36:22;16.10;1.00
17284;DHT22;8760;52.248;20.952;2023-10-08T07:38:49;16.50;1.00
17284;DHT22;8760;52.248;20.952;2023-10-08T07:41:16;16.60;1.00
17284;DHT22;8760;52.248;20.952;2023-10-08T07:43:45;16.40;1.00
17284;DHT22;8760;52.248;20.952;2023-10-08T07:46:20;17.00;1.00
17284;DHT22;8760;52.248;20.952;2023-10-08T07:48:47;17.10;1.00
17284;DHT22;8760;52.248;20.952;2023-10-08T07:51:15;17.50;1.00
17284;DHT22;8760;52.248;20.952;2023-10-08T07:53:47;17.80;1.00
17284;DHT22;8760;52.248;20.952;2023-10-08T07:56:14;18.00;1.00
17284;DHT22;8760;52.248;20.952;2023-10-08T07:58:43;17.80;1.00
17284;DHT22;8760;52.248;20.952;2023-10-08T08:01:10;18.00;1.00
17284;DHT22;8760;52.248;20.952;2023-10-08T08:03:40;18.00;1.00
17284;DHT22;8760;52.248;20.952;2023-10-08T08:06:08;18.10;1.00
17284;DHT22;8760;52.248;20.952;2023-10-08T08:08:36;18.30;1.00
17284;DHT22;8760;52.248;20.952;2023-10-08T08:11:04;18.50;1.00
17284;DHT22;8760;52.248;20.952;2023-10-08T08:13:33;19.00;1.00
17284;DHT22;8760;52.248;20.952;2023-10-08T08:16:00;18.70;1.00
17284;DHT22;8760;52.248;20.952;2023-10-08T08:18:36;18.80;1.00
17284;DHT22;8760;52.248;20.952;2023-10-08T08:21:09;19.20;1.00
17284;DHT22;8760;52.248;20.952;2023-10-08T08:23:40;19.10;1.00
17284;DHT22;8760;52.248;20.952;2023-10-08T08:26:07;18.80;1.00
17284;DHT22;8760;52.248;20.952;2023-10-08T08:28:39;18.60;1.00
17284;DHT22;8760;52.248;20.952;2023-10-08T08:31:06;18.90;1.00
17284;DHT22;8760;52.248;20.952;2023-10-08T08:33:42;19.40;1.00
17284;DHT22;8760;52.248;20.952;2023-10-08T08:36:27;19.30;1.00
17284;DHT22;8760;52.248;20.952;2023-10-08T08:38:54;18.80;1.00
17284;DHT22;8760;52.248;20.952;2023-10-08T08:41:21;19.30;1.00
17284;DHT22;8760;52.248;20.952;2023-10-08T08:43:50;19.20;1.00
17284;DHT22;8760;52.248;20.952;2023-10-08T08:46:26;19.50;1.00
17284;DHT22;8760;52.248;20.952;2023-10-08T08:48:54;19.20;1.00
17284;DHT22;8760;52.248;20.952;2023-10-08T08:51:23;19.40;1.00
17284;DHT22;8760;52.248;20.952;2023-10-08T08:53:51;19.80;1.00
17284;DHT22;8760;52.248;20.952;2023-10-08T08:56:19;19.70;1.00
17284;DHT22;8760;52.248;20.952;2023-10-08T08:58:49;19.80;1.00
17284;DHT22;8760;52.248;20.952;2023-10-08T09:01:17;20.00;1.00
17284;DHT22;8760;52.248;20.952;2023-10-08T09:03:45;19.90;1.00
17284;DHT22;8760;52.248;20.952;2023-10-08T09:06:14;20.30;1.00
17284;DHT22;8760;52.248;20.952;2023-10-08T09:08:40;20.50;1.00
17284;DHT22;8760;52.248;20.952;2023-10-08T09:11:15;20.70;1.00
17284;DHT22;8760;52.248;20.952;2023-10-08T09:13:42;20.20;1.00
17284;DHT22;8760;52.248;20.952;2023-10-08T09:16:12;20.40;1.00
17284;DHT22;8760;52.248;20.952;2023-10-08T09:18:42;20.50;1.00
17284;DHT22;8760;52.248;20.952;2023-10-08T09:21:15;20.80;1.00
17284;DHT22;8760;52.248;20.952;2023-10-08T09:23:48;20.60;1.00
17284;DHT22;8760;52.248;20.952;2023-10-08T09:26:18;20.80;1.00
17284;DHT22;8760;52.248;20.952;2023-10-08T09:28:46;21.20;1.00
17284;DHT22;8760;52.248;20.952;2023-10-08T09:31:14;21.30;1.00
17284;DHT22;8760;52.248;20.952;2023-10-08T09:33:43;21.30;1.00
17284;DHT22;8760;52.248;20.952;2023-10-08T09:36:10;21.10;1.00
17284;DHT22;8760;52.248;20.952;2023-10-08T09:38:44;20.90;1.00
17284;DHT22;8760;52.248;20.952;2023-10-08T09:41:13;21.00;1.00
17284;DHT22;8760;52.248;20.952;2023-10-08T09:43:42;21.00;1.00
17284;DHT22;8760;52.248;20.952;2023-10-08T09:46:17;21.30;1.00
17284;DHT22;8760;52.248;20.952;2023-10-08T09:48:49;21.60;1.00
17284;DHT22;8760;52.248;20.952;2023-10-08T09:51:17;22.00;1.00
17284;DHT22;8760;52.248;20.952;2023-10-08T09:53:52;21.90;1.00
17284;DHT22;8760;52.248;20.952;2023-10-08T09:56:20;22.10;1.00
17284;DHT22;8760;52.248;20.952;2023-10-08T09:58:49;21.70;1.00
17284;DHT22;8760;52.248;20.952;2023-10-08T10:01:18;21.60;1.00
17284;DHT22;8760;52.248;20.952;2023-10-08T10:03:45;21.70;1.00
17284;DHT22;8760;52.248;20.952;2023-10-08T10:06:13;21.30;1.00
17284;DHT22;8760;52.248;20.952;2023-10-08T10:08:42;21.60;1.00
17284;DHT22;8760;52.248;20.952;2023-10-08T10:11:09;21.40;1.00
17284;DHT22;8760;52.248;20.952;2023-10-08T10:13:39;22.10;1.00
17284;DHT22;8760;52.248;20.952;2023-10-08T10:16:09;21.90;1.00
17284;DHT22;8760;52.248;20.952;2023-10-08T10:18:38;21.70;1.00
17284;DHT22;8760;52.248;20.952;2023-10-08T10:21:24;21.60;1.00
17284;DHT22;8760;52.248;20.952;2023-10-08T10:23:53;21.90;1.00
17284;DHT22;8760;52.248;20.952;2023-10-08T10:26:25;21.60;1.00
17284;DHT22;8760;52.248;20.952;2023-10-08T10:29:19;21.40;1.00
17284;DHT22;8760;52.248;20.952;2023-10-08T10:31:49;20.90;1.00
17284;DHT22;8760;52.248;20.952;2023-10-08T10:34:20;20.10;1.00
17284;DHT22;8760;52.248;20.952;2023-10-08T10:36:48;19.70;1.00
17284;DHT22;8760;52.248;20.952;2023-10-08T10:39:17;19.30;1.00
17284;DHT22;8760;52.248;20.952;2023-10-08T10:41:53;18.80;1.00
17284;DHT22;8760;52.248;20.952;2023-10-08T10:44:23;18.10;1.00
17284;DHT22;8760;52.248;20.952;2023-10-08T10:46:52;17.80;1.00
17284;DHT22;8760;52.248;20.952;2023-10-08T10:49:40;17.40;1.00
17284;DHT22;8760;52.248;20.952;2023-10-08T10:52:15;17.00;1.00
17284;DHT22;8760;52.248;20.952;2023-10-08T10:55:00;16.40;1.00
17284;DHT22;8760;52.248;20.952;2023-10-08T10:57:26;16.00;1.00
17284;DHT22;8760;52.248;20.952;2023-10-08T11:00:02;15.80;1.00
17284;DHT22;8760;52.248;20.952;2023-10-08T11:02:55;15.40;1.00
17284;DHT22;8760;52.248;20.952;2023-10-08T11:05:25;15.00;1.00
17284;DHT22;8760;52.248;20.952;2023-10-08T11:07:54;14.70;1.00
17284;DHT22;8760;52.248;20.952;2023-10-08T11:10:26;14.50;1.00
17284;DHT22;8760;52.248;20.952;2023-10-08T11:12:54;14.40;1.00
17284;DHT22;8760;52.248;20.952;2023-10-08T11:15:25;14.50;1.00
17284;DHT22;8760;52.248;20.952;2023-10-08T11:17:57;14.50;1.00
17284;DHT22;8760;52.248;20.952;2023-10-08T11:20:27;14.50;1.00
17284;DHT22;8760;52.248;20.952;2023-10-08T11:22:54;14.70;1.00
17284;DHT22;8760;52.248;20.952;2023-10-08T11:25:21;14.80;1.00
17284;DHT22;8760;52.248;20.952;2023-10-08T11:27:51;14.80;1.00
17284;DHT22;8760;52.248;20.952;2023-10-08T11:30:24;14.90;1.00
17284;DHT22;8760;52.248;20.952;2023-10-08T11:32:57;15.00;1.00
17284;DHT22;8760;52.248;20.952;2023-10-08T11:35:25;15.10;1.00
17284;DHT22;8760;52.248;20.952;2023-10-08T11:37:59;15.10;1.00
17284;DHT22;8760;52.248;20.952;2023-10-08T11:40:28;15.40;1.00
17284;DHT22;8760;52.248;20.952;2023-10-08T11:42:55;15.50;1.00
17284;DHT22;8760;52.248;20.952;2023-10-08T11:45:24;15.60;1.00
17284;DHT22;8760;52.248;20.952;2023-10-08T11:47:52;15.60;1.00
17284;DHT22;8760;52.248;20.952;2023-10-08T11:50:30;15.70;1.00
17284;DHT22;8760;52.248;20.952;2023-10-08T11:52:58;15.60;1.00
17284;DHT22;8760;52.248;20.952;2023-10-08T11:55:28;15.40;1.00
17284;DHT22;8760;52.248;20.952;2023-10-08T11:57:56;15.10;1.00
17284;DHT22;8760;52.248;20.952;2023-10-08T12:00:23;15.30;1.00
17284;DHT22;8760;52.248;20.952;2023-10-08T12:02:52;15.50;1.00
17284;DHT22;8760;52.248;20.952;2023-10-08T12:05:20;15.80;1.00
17284;DHT22;8760;52.248;20.952;2023-10-08T12:07:51;16.20;1.00
17284;DHT22;8760;52.248;20.952;2023-10-08T12:10:18;16.10;1.00
17284;DHT22;8760;52.248;20.952;2023-10-08T12:12:49;15.80;1.00
17284;DHT22;8760;52.248;20.952;2023-10-08T12:15:18;15.70;1.00
17284;DHT22;8760;52.248;20.952;2023-10-08T12:17:47;15.40;1.00
17284;DHT22;8760;52.248;20.952;2023-10-08T12:20:35;15.40;1.00
17284;DHT22;8760;52.248;20.952;2023-10-08T12:23:04;15.30;1.00
17284;DHT22;8760;52.248;20.952;2023-10-08T12:25:31;15.80;1.00
17284;DHT22;8760;52.248;20.952;2023-10-08T12:27:59;16.20;1.00
17284;DHT22;8760;52.248;20.952;2023-10-08T12:30:29;16.70;1.00
17284;DHT22;8760;52.248;20.952;2023-10-08T12:32:58;17.60;1.00
17284;DHT22;8760;52.248;20.952;2023-10-08T12:35:26;18.90;1.00
17284;DHT22;8760;52.248;20.952;2023-10-08T12:37:55;20.60;1.00
17284;DHT22;8760;52.248;20.952;2023-10-08T12:40:24;21.00;1.00
17284;DHT22;8760;52.248;20.952;2023-10-08T12:43:07;20.80;1.00
17284;DHT22;8760;52.248;20.952;2023-10-08T12:45:35;19.70;1.00
17284;DHT22;8760;52.248;20.952;2023-10-08T12:48:03;18.90;1.00
17284;DHT22;8760;52.248;20.952;2023-10-08T12:50:33;18.30;1.00
17284;DHT22;8760;52.248;20.952;2023-10-08T12:53:08;17.40;1.00
17284;DHT22;8760;52.248;20.952;2023-10-08T12:55:38;17.00;1.00
17284;DHT22;8760;52.248;20.952;2023-10-08T12:58:06;16.40;1.00
17284;DHT22;8760;52.248;20.952;2023-10-08T13:00:35;16.40;1.00
17284;DHT22;8760;52.248;20.952;2023-10-08T13:03:06;16.40;1.00
17284;DHT22;8760;52.248;20.952;2023-10-08T13:05:40;16.60;1.00
17284;DHT22;8760;52.248;20.952;2023-10-08T13:08:09;16.50;1.00
17284;DHT22;8760;52.248;20.952;2023-10-08T13:10:40;15.80;1.00
17284;DHT22;8760;52.248;20.952;2023-10-08T13:13:09;15.40;1.00
17284;DHT22;8760;52.248;20.952;2023-10-08T13:15:37;15.10;1.00
17284;DHT22;8760;52.248;20.952;2023-10-08T13:18:07;14.80;1.00
17284;DHT22;8760;52.248;20.952;2023-10-08T13:20:34;14.80;1.00
17284;DHT22;8760;52.248;20.952;2023-10-08T13:23:01;15.00;1.00
17284;DHT22;8760;52.248;20.952;2023-10-08T13:25:28;15.10;1.00
17284;DHT22;8760;52.248;20.952;2023-10-08T13:28:00;15.10;1.00
17284;DHT22;8760;52.248;20.952;2023-10-08T13:30:27;15.20;1.00
17284;DHT22;8760;52.248;20.952;2023-10-08T13:32:54;15.30;1.00
17284;DHT22;8760;52.248;20.952;2023-10-08T13:35:21;15.20;1.00
17284;DHT22;8760;52.248;20.952;2023-10-08T13:37:48;15.30;1.00
17284;DHT22;8760;52.248;20.952;2023-10-08T13:40:15;15.60;1.00
17284;DHT22;8760;52.248;20.952;2023-10-08T13:42:42;15.80;1.00
17284;DHT22;8760;52.248;20.952;2023-10-08T13:45:11;16.00;1.00
17284;DHT22;8760;52.248;20.952;2023-10-08T13:47:51;16.40;1.00
17284;DHT22;8760;52.248;20.952;2023-10-08T13:50:19;16.10;1.00
17284;DHT22;8760;52.248;20.952;2023-10-08T13:52:47;15.90;1.00
17284;DHT22;8760;52.248;20.952;2023-10-08T13:55:14;16.00;1.00
17284;DHT22;8760;52.248;20.952;2023-10-08T13:57:44;16.40;1.00
17284;DHT22;8760;52.248;20.952;2023-10-08T14:00:15;17.20;1.00
17284;DHT22;8760;52.248;20.952;2023-10-08T14:02:51;17.80;1.00
17284;DHT22;8760;52.248;20.952;2023-10-08T14:05:18;18.00;1.00
17284;DHT22;8760;52.248;20.952;2023-10-08T14:07:51;17.70;1.00
17284;DHT22;8760;52.248;20.952;2023-10-08T14:10:18;17.10;1.00
17284;DHT22;8760;52.248;20.952;2023-10-08T14:12:46;17.10;1.00
17284;DHT22;8760;52.248;20.952;2023-10-08T14:15:16;16.70;1.00
17284;DHT22;8760;52.248;20.952;2023-10-08T14:17:46;16.40;1.00
17284;DHT22;8760;52.248;20.952;2023-10-08T14:20:14;15.90;1.00
17284;DHT22;8760;52.248;20.952;2023-10-08T14:22:47;15.50;1.00
17284;DHT22;8760;52.248;20.952;2023-10-08T14:25:23;15.30;1.00
17284;DHT22;8760;52.248;20.952;2023-10-08T14:27:53;15.30;1.00
17284;DHT22;8760;52.248;20.952;2023-10-08T14:30:31;15.20;1.00
17284;DHT22;8760;52.248;20.952;2023-10-08T14:33:01;15.10;1.00
17284;DHT22;8760;52.248;20.952;2023-10-08T14:35:29;14.90;1.00
17284;DHT22;8760;52.248;20.952;2023-10-08T14:38:13;14.70;1.00
17284;DHT22;8760;52.248;20.952;2023-10-08T14:40:57;14.60;1.00
17284;DHT22;8760;52.248;20.952;2023-10-08T14:43:42;14.40;1.00
17284;DHT22;8760;52.248;20.952;2023-10-08T14:46:10;14.30;1.00
17284;DHT22;8760;52.248;20.952;2023-10-08T14:48:37;14.30;1.00
17284;DHT22;8760;52.248;20.952;2023-10-08T14:51:06;14.10;1.00
17284;DHT22;8760;52.248;20.952;2023-10-08T14:53:33;14.10;1.00
17284;DHT22;8760;52.248;20.952;2023-10-08T14:56:04;14.00;1.00
17284;DHT22;8760;52.248;20.952;2023-10-08T14:58:31;14.00;1.00
17284;DHT22;8760;52.248;20.952;2023-10-08T15:00:58;13.80;1.00
17284;DHT22;8760;52.248;20.952;2023-10-08T15:03:27;13.70;1.00
17284;DHT22;8760;52.248;20.952;2023-10-08T15:05:56;13.90;1.00
17284;DHT22;8760;52.248;20.952;2023-10-08T15:08:24;13.80;1.00
17284;DHT22;8760;52.248;20.952;2023-10-08T15:10:52;13.90;1.00
17284;DHT22;8760;52.248;20.952;2023-10-08T15:13:19;13.80;1.00
17284;DHT22;8760;52.248;20.952;2023-10-08T15:15:46;13.90;1.00
17284;DHT22;8760;52.248;20.952;2023-10-08T15:18:14;13.80;1.00
17284;DHT22;8760;52.248;20.952;2023-10-08T15:20:45;13.80;1.00
17284;DHT22;8760;52.248;20.952;2023-10-08T15:23:12;13.50;1.00
17284;DHT22;8760;52.248;20.952;2023-10-08T15:25:39;13.10;1.00
17284;DHT22;8760;52.248;20.952;2023-10-08T15:28:07;12.80;1.00
17284;DHT22;8760;52.248;20.952;2023-10-08T15:30:34;12.50;1.00
17284;DHT22;8760;52.248;20.952;2023-10-08T15:33:01;12.20;1.00
17284;DHT22;8760;52.248;20.952;2023-10-08T15:35:28;12.00;1.00
17284;DHT22;8760;52.248;20.952;2023-10-08T15:37:56;12.00;1.00
17284;DHT22;8760;52.248;20.952;2023-10-08T15:40:23;11.80;1.00
17284;DHT22;8760;52.248;20.952;2023-10-08T15:42:52;11.60;1.00
17284;DHT22;8760;52.248;20.952;2023-10-08T15:45:19;11.60;1.00
17284;DHT22;8760;52.248;20.952;2023-10-08T15:47:46;11.50;1.00
17284;DHT22;8760;52.248;20.952;2023-10-08T15:50:16;11.30;1.00
17284;DHT22;8760;52.248;20.952;2023-10-08T15:52:45;11.30;1.00
17284;DHT22;8760;52.248;20.952;2023-10-08T15:55:14;11.10;1.00
17284;DHT22;8760;52.248;20.952;2023-10-08T15:57:41;11.00;1.00
17284;DHT22;8760;52.248;20.952;2023-10-08T16:00:09;11.00;1.00
17284;DHT22;8760;52.248;20.952;2023-10-08T16:02:36;10.90;1.00
17284;DHT22;8760;52.248;20.952;2023-10-08T16:05:03;10.80;1.00
17284;DHT22;8760;52.248;20.952;2023-10-08T16:07:33;10.80;1.00
17284;DHT22;8760;52.248;20.952;2023-10-08T16:10:00;10.70;1.00